This is the latest recevied weather packets stored in our database for station/object OE-11365. If no packets are shown the sender has not sent any weather packets the latest 10 day(s).
| Time | Temp. | Humidity | Pressure | Rain* | Wind** | Luminosity | Snow |
|---|---|---|---|---|---|---|---|
| 1787808931 | 15° C | 94% | 1018.8 hPa | 0 mm | - | 124 W/m² | - |
| 1787808331 | 14.44° C | 95% | 1018.8 hPa | 0 mm | - | 137 W/m² | - |
| 1787807504 | 13.89° C | 97% | 1019 hPa | 0 mm | - | 98 W/m² | - |
| 1787807131 | 13.33° C | 97% | 1019.2 hPa | 0 mm | - | 65 W/m² | - |
| 1787806531 | 13.33° C | 98% | 1019 hPa | 0 mm | - | 33 W/m² | - |
| 1787805703 | 12.78° C | 98% | 1019.2 hPa | 0 mm | - | 13 W/m² | - |
| 1787805331 | 12.78° C | 98% | 1019.1 hPa | 0 mm | - | 7 W/m² | - |
| 1787804731 | 13.33° C | 97% | 1019 hPa | 0 mm | - | 0 W/m² | - |
| 1787803904 | 12.78° C | 97% | 1019.1 hPa | 0 mm | - | 0 W/m² | - |
| 1787803531 | 12.78° C | 96% | 1019 hPa | 0 mm | - | 0 W/m² | - |
| 1787802931 | 12.78° C | 96% | 1018.8 hPa | 0 mm | - | 0 W/m² | - |
| 1787802331 | 13.33° C | 93% | 1018.8 hPa | 0 mm | - | 0 W/m² | - |
| 1787801731 | 13.89° C | 96% | 1018.7 hPa | 0 mm | - | 0 W/m² | - |
| 1787801131 | 13.89° C | 95% | 1018.7 hPa | 0 mm | - | 0 W/m² | - |
| 1787800304 | 13.33° C | 95% | 1019.1 hPa | 0 mm | - | 0 W/m² | - |
| 1787799931 | 13.89° C | 95% | 1018.9 hPa | 0 mm | - | 0 W/m² | - |
| 1787799331 | 14.44° C | 96% | 1018.7 hPa | 0 mm | - | 0 W/m² | - |
| 1787798503 | 14.44° C | 96% | 1018.8 hPa | 0 mm | - | 0 W/m² | - |
| 1787798131 | 14.44° C | 95% | 1018.4 hPa | 0 mm | - | 0 W/m² | - |
| 1787797531 | 15° C | 94% | 1018.4 hPa | 0 mm | - | 0 W/m² | - |
| 1787796704 | 15° C | 94% | 1018.2 hPa | 0 mm | - | 0 W/m² | - |
| 1787796330 | 15° C | 95% | 1018.4 hPa | 0 mm | - | 0 W/m² | - |
| 1787795731 | 15° C | 95% | 1018.5 hPa | 0 mm | - | 0 W/m² | - |
| 1787794904 | 15° C | 95% | 1018.4 hPa | 0 mm | - | 0 W/m² | - |
| 1787794531 | 15° C | 94% | 1018.6 hPa | 0 mm | - | 0 W/m² | - |
* Rain latest hour (hover to see other rain measurements)
** Current wind speed in m/s (hover to see current wind gust speed)